Clarkdale, Georgia
Current Conditions -  °F | °C
As of 8:03 PM on Saturday 20 Dec 2014 (Local Time) from KFTY Reporting Station
Overcast Overcast  
Wind Chill: 49°   Ceiling: 1400
Heat Index: 49°   Visibility: 8mi
Dew Point: 44°   Wind: 0mph
Humidity: 83%   Direction: NA
Pressure: 30.19"   Gusts: NA
Location:  33.83°N, 84.65°W
Report Text: KFTY 210103Z 00000KT 8SM OVC014 09/07 A3019 RMK AO2 T00940067
Loading
Personal Weather Stations






























Interactive Weather Map New forecast layout! Learn more

10-Day Weather Forecast

Advertisements
Track Severe Weather on mobile